Time;durP1;ratioP1;P1;durP2;ratioP2;P2;SDS_P1;SDS_P2;PMS_P1;PMS_P2;Temp;Humidity;BMP_temperature;BMP_pressure;BME280_temperature;BME280_humidity;BME280_pressure;Samples;Min_cycle;Max_cycle;Signal;HPM_P1;HPM_P2
2022/06/16 00:01:59;;;;;;;6.90;4.30;;;20.30;99.90;;;;;;6221302;23;20398;-84
2022/06/16 00:04:25;;;;;;;4.63;4.13;;;20.30;99.90;;;;;;6221297;23;20150;-83
2022/06/16 00:06:51;;;;;;;5.27;4.03;;;20.20;99.90;;;;;;6222512;23;20162;-83
2022/06/16 00:09:17;;;;;;;8.20;4.63;;;20.20;99.90;;;;;;6224306;23;20451;-83
2022/06/16 00:11:43;;;;;;;9.23;4.83;;;20.10;99.90;;;;;;6200844;23;20407;-83
2022/06/16 00:14:10;;;;;;;7.83;4.40;;;20.10;99.90;;;;;;6228893;23;20152;-84
2022/06/16 00:16:36;;;;;;;4.93;4.37;;;20.10;99.90;;;;;;6201443;23;20242;-83
2022/06/16 00:19:02;;;;;;;5.63;3.87;;;20.10;99.90;;;;;;6230321;23;20385;-85
2022/06/16 00:21:28;;;;;;;6.30;4.40;;;20.00;99.90;;;;;;6229652;23;20399;-83
2022/06/16 00:23:53;;;;;;;5.87;4.60;;;20.00;99.90;;;;;;6230223;23;20433;-84
2022/06/16 00:26:24;;;;;;;6.50;4.43;;;20.00;99.90;;;;;;6229243;23;20198;-83
2022/06/16 00:28:50;;;;;;;7.93;4.90;;;19.90;99.90;;;;;;6229661;23;20145;-83
2022/06/16 00:31:18;;;;;;;7.23;5.17;;;19.90;99.90;;;;;;6229630;23;20420;-84
2022/06/16 00:33:45;;;;;;;8.53;5.47;;;19.90;99.90;;;;;;6230040;23;20385;-84
2022/06/16 00:36:12;;;;;;;7.40;5.53;;;19.80;99.90;;;;;;6230392;23;20418;-84
2022/06/16 00:38:38;;;;;;;8.10;5.60;;;19.80;99.90;;;;;;6229760;23;20382;-84
2022/06/16 00:41:05;;;;;;;7.00;5.30;;;19.80;99.90;;;;;;6230604;23;20381;-84
2022/06/16 00:43:40;;;;;;;;;;;;;;;;;;;;;
2022/06/16 00:46:12;;;;;;;7.03;5.13;;;19.80;99.90;;;;;;6218665;23;20439;-82
2022/06/16 00:48:49;;;;;;;5.03;4.50;;;19.80;99.90;;;;;;6219051;23;20777;-80
2022/06/16 00:51:53;;;;;;;6.67;5.37;;;19.70;99.90;;;;;;6217046;23;20373;-82
2022/06/16 00:54:29;;;;;;;5.97;5.13;;;19.60;99.90;;;;;;6244147;23;20450;-81
2022/06/16 00:57:01;;;;;;;9.23;5.47;;;19.60;99.90;;;;;;6248998;22;20489;-83
2022/06/16 00:59:26;;;;;;;11.30;5.70;;;19.60;99.90;;;;;;6248808;22;20362;-83
2022/06/16 01:01:52;;;;;;;8.80;6.63;;;19.60;99.90;;;;;;6247276;23;20395;-82
2022/06/16 01:07:05;;;;;;;7.10;5.00;;;19.50;99.90;;;;;;6249190;23;20174;-81
2022/06/16 01:09:33;;;;;;;8.60;5.33;;;19.50;99.90;;;;;;6249108;22;20664;-82
2022/06/16 01:15:16;;;;;;;14.27;6.00;;;19.50;99.90;;;;;;6248080;23;20362;-82
2022/06/16 01:18:02;;;;;;;12.17;6.60;;;19.40;99.90;;;;;;6247027;23;20417;-82
2022/06/16 01:20:39;;;;;;;8.53;5.50;;;19.40;99.90;;;;;;6247745;23;20377;-82
2022/06/16 01:23:39;;;;;;;9.80;6.27;;;19.40;99.90;;;;;;6248869;22;20418;-82
2022/06/16 01:26:33;;;;;;;10.70;6.07;;;19.30;99.90;;;;;;6248036;23;20371;-83
2022/06/16 01:28:59;;;;;;;8.60;5.43;;;19.10;99.90;;;;;;6248986;22;20360;-82
2022/06/16 01:31:28;;;;;;;12.63;6.57;;;19.00;99.90;;;;;;6249966;23;20380;-83
2022/06/16 01:34:12;;;;;;;9.57;5.63;;;18.90;99.90;;;;;;6252032;22;20182;-83
2022/06/16 01:37:23;;;;;;;11.00;5.27;;;18.90;99.90;;;;;;6248074;23;20815;-82
2022/06/16 01:40:09;;;;;;;7.30;5.17;;;18.90;99.90;;;;;;6242600;23;20427;-82
2022/06/16 01:42:49;;;;;;;6.67;5.20;;;18.80;99.90;;;;;;6246418;22;20426;-82
2022/06/16 01:45:19;;;;;;;12.67;6.90;;;18.80;99.90;;;;;;6247854;23;20362;-83
2022/06/16 01:47:49;;;;;;;8.60;5.93;;;18.80;99.90;;;;;;6247850;23;20395;-81
2022/06/16 01:50:25;;;;;;;6.47;5.60;;;18.80;99.90;;;;;;6221364;23;20876;-82
2022/06/16 01:53:15;;;;;;;11.00;6.10;;;18.80;99.90;;;;;;6221971;23;20399;-83
2022/06/16 01:55:50;;;;;;;6.73;5.47;;;18.80;99.90;;;;;;6221822;23;20373;-80
2022/06/16 01:58:26;;;;;;;9.33;5.93;;;18.70;99.90;;;;;;6248481;23;20448;-82
2022/06/16 02:00:56;;;;;;;11.00;5.57;;;18.70;99.90;;;;;;6248313;23;20389;-82
2022/06/16 02:03:30;;;;;;;8.93;5.63;;;18.70;99.90;;;;;;6221754;23;20402;-82
2022/06/16 02:06:01;;;;;;;9.50;5.50;;;18.70;99.90;;;;;;6221478;23;20376;-82
2022/06/16 02:08:34;;;;;;;10.47;5.93;;;18.70;99.90;;;;;;6247768;23;20457;-81
2022/06/16 02:11:14;;;;;;;7.50;5.83;;;18.60;99.90;;;;;;6221910;23;20372;-81
2022/06/16 02:13:54;;;;;;;7.83;5.70;;;18.60;99.90;;;;;;6221736;23;20414;-82
2022/06/16 02:16:23;;;;;;;11.03;6.27;;;18.60;99.90;;;;;;6247661;23;21099;-82
2022/06/16 02:18:54;;;;;;;7.20;6.33;;;18.60;99.90;;;;;;6221194;23;20410;-82
2022/06/16 02:21:46;;;;;;;7.23;5.50;;;18.60;99.90;;;;;;6221315;23;20376;-82
2022/06/16 02:24:17;;;;;;;9.77;6.00;;;18.60;99.90;;;;;;6221555;23;20396;-82
2022/06/16 02:26:44;;;;;;;7.73;5.43;;;18.60;99.90;;;;;;6220737;23;20392;-82
2022/06/16 02:29:22;;;;;;;11.50;5.47;;;18.50;99.90;;;;;;6247899;23;20374;-82
2022/06/16 02:32:02;;;;;;;6.57;5.17;;;18.40;99.90;;;;;;6221207;23;20391;-82
2022/06/16 02:34:39;;;;;;;9.60;5.57;;;18.40;99.90;;;;;;6248866;22;20876;-82
2022/06/16 02:37:08;;;;;;;8.33;5.23;;;18.30;99.90;;;;;;6220372;23;20411;-82
2022/06/16 02:40:01;;;;;;;12.97;6.27;;;18.30;99.90;;;;;;6220710;23;20395;-82
2022/06/16 02:43:02;;;;;;;6.87;5.70;;;18.30;99.90;;;;;;6248531;22;20368;-82
2022/06/16 02:45:33;;;;;;;11.73;5.83;;;18.20;99.90;;;;;;6185405;23;20380;-82
2022/06/16 02:48:11;;;;;;;8.97;5.10;;;18.10;99.90;;;;;;6220302;23;20873;-82
2022/06/16 02:50:54;;;;;;;26.63;6.47;;;18.10;99.90;;;;;;6220130;23;20369;-83
2022/06/16 02:56:33;;;;;;;8.10;6.07;;;17.90;99.90;;;;;;6248273;23;20416;-82
2022/06/16 02:59:06;;;;;;;9.10;4.93;;;17.90;99.90;;;;;;6222206;23;20377;-82
2022/06/16 03:01:32;;;;;;;11.13;6.10;;;17.70;99.90;;;;;;6220584;23;20374;-82
2022/06/16 03:04:17;;;;;;;10.13;5.53;;;17.70;99.90;;;;;;6221869;23;20404;-82
2022/06/16 03:06:44;;;;;;;8.73;5.53;;;17.70;99.90;;;;;;6247619;23;20426;-83
2022/06/16 03:09:10;;;;;;;6.67;5.80;;;17.60;99.90;;;;;;6221413;23;20391;-83
2022/06/16 03:11:37;;;;;;;8.20;5.13;;;17.60;99.90;;;;;;6219791;23;20388;-82
2022/06/16 03:14:03;;;;;;;8.47;5.23;;;17.50;99.90;;;;;;6220098;23;20872;-82
2022/06/16 03:16:30;;;;;;;9.40;5.00;;;17.50;99.90;;;;;;6218514;23;20515;-82
2022/06/16 03:18:56;;;;;;;7.77;4.97;;;17.40;99.90;;;;;;6220808;23;20383;-82
2022/06/16 03:21:21;;;;;;;8.83;5.00;;;17.40;99.90;;;;;;6219672;23;20402;-81
2022/06/16 03:23:47;;;;;;;16.67;5.73;;;17.40;99.90;;;;;;6247150;22;20176;-83
2022/06/16 03:26:13;;;;;;;7.80;5.53;;;17.40;99.90;;;;;;6219793;23;20467;-81
2022/06/16 03:28:39;;;;;;;11.50;5.20;;;17.40;99.90;;;;;;6219452;23;20161;-82
2022/06/16 03:31:04;;;;;;;11.47;5.67;;;17.40;99.90;;;;;;6220248;23;20474;-81
2022/06/16 03:33:30;;;;;;;9.00;6.20;;;17.40;99.90;;;;;;6220085;23;20443;-82
2022/06/16 03:35:56;;;;;;;6.70;5.40;;;17.40;99.90;;;;;;6219840;23;20188;-83
2022/06/16 03:40:54;;;;;;;7.93;5.43;;;17.40;99.90;;;;;;6257461;23;20367;-82
2022/06/16 03:43:20;;;;;;;7.73;5.23;;;17.40;99.90;;;;;;6226487;23;20424;-82
2022/06/16 03:45:46;;;;;;;10.83;6.30;;;17.50;99.90;;;;;;6245372;23;20613;-83
2022/06/16 03:48:12;;;;;;;8.43;5.87;;;17.50;99.90;;;;;;6245326;23;20622;-82
2022/06/16 03:50:38;;;;;;;7.70;5.17;;;17.50;99.90;;;;;;6246615;22;20149;-84
2022/06/16 03:53:04;;;;;;;8.10;5.63;;;17.60;99.90;;;;;;6246242;22;20410;-83
2022/06/16 03:55:31;;;;;;;8.13;5.80;;;17.60;99.90;;;;;;6244952;23;20148;-82
2022/06/16 03:57:57;;;;;;;5.90;5.40;;;17.60;99.90;;;;;;6245955;23;21071;-83
2022/06/16 04:00:23;;;;;;;11.37;6.17;;;17.60;99.90;;;;;;6246824;22;20471;-82
2022/06/16 04:03:59;;;;;;;7.60;5.07;;;17.60;99.90;;;;;;6246346;22;20407;-82
2022/06/16 04:05:39;;;;;;;11.03;6.30;;;17.60;99.90;;;;;;6247077;23;20426;-81
2022/06/16 04:08:05;;;;;;;7.30;5.47;;;17.60;99.90;;;;;;6245350;23;20437;-82
2022/06/16 04:10:31;;;;;;;8.30;5.20;;;17.70;99.90;;;;;;6246050;23;20720;-82
2022/06/16 04:12:57;;;;;;;6.90;5.23;;;17.70;99.90;;;;;;6245653;22;20455;-82
2022/06/16 04:15:22;;;;;;;8.63;5.93;;;17.70;99.90;;;;;;6246992;23;20799;-83
2022/06/16 04:17:48;;;;;;;8.57;5.70;;;17.80;99.90;;;;;;6246858;23;20243;-83
2022/06/16 04:20:14;;;;;;;10.43;5.37;;;17.80;99.90;;;;;;6248201;23;20163;-82
2022/06/16 04:22:40;;;;;;;10.43;5.70;;;17.80;99.90;;;;;;6245814;22;20180;-82
2022/06/16 04:25:09;;;;;;;7.67;5.73;;;17.80;99.90;;;;;;6248335;22;20145;-82
2022/06/16 04:27:35;;;;;;;7.83;5.60;;;17.90;99.90;;;;;;6245529;23;20431;-82
2022/06/16 04:30:01;;;;;;;6.30;4.73;;;17.90;99.90;;;;;;6246438;23;20395;-83
2022/06/16 04:32:27;;;;;;;8.83;5.50;;;18.00;99.90;;;;;;6248300;22;20371;-83
2022/06/16 04:34:52;;;;;;;5.97;4.57;;;18.00;99.90;;;;;;6247020;23;20183;-83
2022/06/16 04:37:18;;;;;;;5.87;4.47;;;18.00;99.90;;;;;;6245963;23;20180;-83
2022/06/16 04:39:43;;;;;;;5.93;5.30;;;18.10;99.90;;;;;;6249352;23;20158;-83
2022/06/16 04:42:09;;;;;;;6.20;4.83;;;18.10;99.90;;;;;;6252165;23;20217;-84
2022/06/16 04:44:34;;;;;;;7.77;5.17;;;18.20;99.90;;;;;;6247204;22;20190;-83
2022/06/16 04:47:03;;;;;;;6.90;4.57;;;18.20;99.90;;;;;;6247486;23;20149;-83
2022/06/16 04:49:29;;;;;;;7.83;5.03;;;18.30;99.90;;;;;;6246389;22;20176;-82
2022/06/16 04:51:57;;;;;;;6.97;5.07;;;18.30;99.90;;;;;;6246952;23;20391;-83
2022/06/16 04:54:40;;;;;;;7.93;4.90;;;18.40;99.90;;;;;;6247490;22;20493;-83
2022/06/16 04:57:21;;;;;;;;;;;;;;;;;;;;;
2022/06/16 05:00:28;;;;;;;8.63;5.17;;;18.50;99.90;;;;;;6249530;22;20440;-82
2022/06/16 05:06:46;;;;;;;7.93;5.83;;;18.70;99.90;;;;;;6245217;22;20884;-83
2022/06/16 05:10:10;;;;;;;;;;;;;;;;;;;;;
2022/06/16 05:13:06;;;;;;;7.03;5.63;;;18.80;99.90;;;;;;6247652;22;20876;-83
2022/06/16 05:16:32;;;;;;;6.53;5.40;;;18.90;99.90;;;;;;6251079;23;20807;-83
2022/06/16 05:18:57;;;;;;;8.50;5.40;;;19.00;99.90;;;;;;6250435;22;20390;-81
2022/06/16 05:22:13;;;;;;;;;;;;;;;;;;;;;
2022/06/16 05:24:39;;;;;;;6.23;5.43;;;19.30;99.90;;;;;;6250139;22;20245;-81
2022/06/16 05:27:05;;;;;;;6.73;5.13;;;19.40;99.90;;;;;;6247461;23;20748;-83
2022/06/16 05:29:31;;;;;;;6.43;4.67;;;19.50;99.90;;;;;;6248138;23;20162;-82
2022/06/16 05:31:58;;;;;;;6.10;5.10;;;19.60;99.90;;;;;;6249956;23;20510;-83
2022/06/16 05:34:23;;;;;;;7.80;4.97;;;19.70;99.90;;;;;;6248308;22;20739;-82
2022/06/16 05:36:49;;;;;;;9.97;5.27;;;19.80;99.90;;;;;;6249888;23;20421;-82
2022/06/16 05:39:17;;;;;;;7.70;5.30;;;19.90;99.90;;;;;;6252013;23;20179;-83
2022/06/16 05:42:16;;;;;;;7.37;4.53;;;20.00;99.90;;;;;;6250638;23;20260;-83
2022/06/16 05:54:58;;;;;;;;;;;;;;;;;;;;;
2022/06/16 05:58:17;;;;;;;;;;;;;;;;;;;;;
2022/06/16 06:41:38;;;;;;;;;;;;;;;;;;;;;
2022/06/16 06:44:04;;;;;;;5.97;3.20;;;49.30;99.90;;;;;;6247043;22;20538;-86
2022/06/16 06:46:30;;;;;;;5.57;2.70;;;50.00;99.90;;;;;;6244883;23;20425;-87
2022/06/16 06:48:55;;;;;;;3.83;3.00;;;50.60;99.90;;;;;;6245419;23;20398;-87
2022/06/16 06:51:21;;;;;;;4.33;2.97;;;51.40;99.90;;;;;;6245701;23;20223;-87
2022/06/16 06:53:46;;;;;;;6.40;2.77;;;51.80;99.90;;;;;;6258765;22;20168;-87
2022/06/16 06:56:14;;;;;;;6.50;3.27;;;52.30;97.50;;;;;;6276082;22;20222;-88
2022/06/16 06:58:40;;;;;;;6.40;2.90;;;52.80;95.60;;;;;;6276363;22;20155;-87
2022/06/16 07:01:06;;;;;;;7.80;3.13;;;53.30;93.00;;;;;;6276252;22;20179;-87
2022/06/16 07:03:32;;;;;;;3.80;2.95;;;53.60;91.00;;;;;;6276145;22;20171;-87
2022/06/16 07:06:01;;;;;;;6.13;3.85;;;54.10;88.80;;;;;;6275622;22;20155;-88
2022/06/16 07:08:28;;;;;;;6.32;3.85;;;54.40;84.30;;;;;;6275646;22;20233;-88
2022/06/16 07:10:54;;;;;;;7.38;3.90;;;54.60;80.40;;;;;;6275720;22;20501;-88
2022/06/16 07:13:19;;;;;;;7.05;3.90;;;54.60;76.00;;;;;;6275689;22;20168;-87
2022/06/16 07:15:45;;;;;;;5.63;3.30;;;54.70;73.10;;;;;;6248576;22;20163;-87
2022/06/16 07:18:11;;;;;;;3.90;3.10;;;55.10;72.20;;;;;;6275498;22;20246;-88
2022/06/16 07:20:37;;;;;;;4.30;2.83;;;55.20;68.20;;;;;;6249362;22;20152;-88
2022/06/16 07:23:04;;;;;;;4.40;2.60;;;55.20;65.80;;;;;;6275796;22;20211;-88
2022/06/16 07:25:29;;;;;;;6.03;3.17;;;55.40;64.20;;;;;;6248798;22;20148;-88
2022/06/16 07:27:56;;;;;;;6.55;3.17;;;55.60;61.90;;;;;;6275829;22;20513;-88
2022/06/16 07:30:23;;;;;;;4.63;2.85;;;55.80;61.10;;;;;;6248826;22;20156;-88
2022/06/16 07:32:49;;;;;;;5.45;2.50;;;55.70;59.30;;;;;;6275556;22;20148;-86
2022/06/16 07:35:17;;;;;;;4.68;2.33;;;55.90;57.80;;;;;;6275490;22;20159;-86
2022/06/16 07:37:43;;;;;;;2.25;1.90;;;56.00;56.30;;;;;;6275318;22;20143;-87
2022/06/16 07:40:10;;;;;;;5.03;2.67;;;55.80;54.70;;;;;;6275118;22;20226;-86
2022/06/16 07:42:35;;;;;;;3.10;2.38;;;55.40;51.60;;;;;;6275389;22;20202;-86
2022/06/16 07:45:01;;;;;;;3.63;2.20;;;55.50;51.00;;;;;;6275253;22;20533;-86
2022/06/16 07:47:27;;;;;;;4.47;2.40;;;55.70;51.40;;;;;;6274375;22;20171;-86
2022/06/16 07:49:54;;;;;;;4.05;2.22;;;55.70;49.50;;;;;;6248069;22;20162;-86
2022/06/16 07:52:19;;;;;;;2.83;1.98;;;55.70;48.70;;;;;;6275482;22;20541;-87
2022/06/16 07:54:45;;;;;;;5.07;1.95;;;55.80;47.80;;;;;;6275519;22;20195;-87
2022/06/16 07:57:11;;;;;;;3.67;1.90;;;55.40;46.40;;;;;;6275453;22;20148;-86
2022/06/16 07:59:36;;;;;;;3.15;1.90;;;55.60;46.00;;;;;;6275431;22;20156;-86
2022/06/16 08:02:02;;;;;;;3.83;2.00;;;55.90;46.00;;;;;;6275281;22;20179;-86
2022/06/16 08:04:28;;;;;;;4.22;1.70;;;56.10;45.90;;;;;;6275299;22;20167;-86
2022/06/16 08:07:00;;;;;;;3.60;1.40;;;56.30;46.30;;;;;;6274677;22;20185;-86
2022/06/16 08:09:31;;;;;;;2.97;2.03;;;56.60;46.00;;;;;;6275518;22;20513;-87
2022/06/16 08:12:08;;;;;;;3.80;1.55;;;56.70;45.90;;;;;;6275132;22;20125;-86
2022/06/16 08:14:37;;;;;;;2.80;1.85;;;56.40;44.00;;;;;;6275116;22;20171;-86
2022/06/16 08:17:08;;;;;;;3.65;1.67;;;56.70;44.00;;;;;;6275013;22;20147;-86
2022/06/16 08:19:35;;;;;;;3.58;1.70;;;56.60;43.30;;;;;;6275220;22;20140;-87
2022/06/16 08:22:01;;;;;;;7.15;1.80;;;56.50;42.20;;;;;;6274992;22;20155;-87
2022/06/16 08:24:27;;;;;;;3.10;1.77;;;56.60;41.50;;;;;;6274784;22;20171;-86
2022/06/16 08:26:52;;;;;;;2.78;1.52;;;56.60;40.30;;;;;;6274568;22;20195;-87
2022/06/16 08:29:18;;;;;;;2.83;1.45;;;56.50;39.40;;;;;;6274983;22;20151;-87
2022/06/16 08:31:44;;;;;;;2.55;1.77;;;56.60;39.70;;;;;;6274862;22;20148;-87
2022/06/16 08:34:10;;;;;;;4.47;1.50;;;56.10;37.50;;;;;;6274783;22;20486;-86
2022/06/16 08:36:36;;;;;;;6.68;1.77;;;56.30;37.80;;;;;;6249258;22;20156;-86
2022/06/16 08:39:05;;;;;;;3.38;2.05;;;56.10;36.10;;;;;;6277020;22;20152;-86
2022/06/16 08:41:52;;;;;;;4.00;1.40;;;56.00;35.40;;;;;;6276872;22;20152;-86
2022/06/16 08:44:28;;;;;;;2.95;1.42;;;55.90;34.30;;;;;;6276908;22;20246;-84
2022/06/16 08:47:01;;;;;;;3.13;1.45;;;55.70;33.90;;;;;;6276664;22;20183;-86
2022/06/16 08:49:39;;;;;;;2.83;1.50;;;55.30;31.40;;;;;;6249914;22;20144;-86
2022/06/16 08:52:10;;;;;;;2.93;1.40;;;55.10;30.40;;;;;;6276943;22;20132;-86
2022/06/16 08:54:46;;;;;;;2.03;1.15;;;55.20;30.70;;;;;;6276655;22;20167;-86
2022/06/16 08:58:03;;;;;;;2.30;1.30;;;55.30;30.70;;;;;;6276395;22;20140;-86
2022/06/16 09:00:34;;;;;;;2.53;1.70;;;55.50;30.00;;;;;;6123475;23;20198;-86
2022/06/16 09:03:07;;;;;;;1.77;1.10;;;55.20;29.20;;;;;;6267513;22;20498;-86
2022/06/16 09:05:58;;;;;;;3.30;1.30;;;55.20;29.30;;;;;;6276986;22;20143;-86
2022/06/16 09:08:36;;;;;;;2.30;1.20;;;55.20;28.10;;;;;;6249434;22;20536;-86
2022/06/16 09:11:25;;;;;;;1.87;1.20;;;54.50;26.80;;;;;;6276992;22;20222;-86
2022/06/16 09:17:45;;;;;;;2.73;1.13;;;54.20;25.40;;;;;;6228487;22;20694;-86
2022/06/16 09:20:30;;;;;;;2.53;1.60;;;54.30;25.40;;;;;;6276738;22;20219;-86
2022/06/16 09:23:34;;;;;;;1.43;1.23;;;53.30;23.30;;;;;;6276469;22;20179;-86
2022/06/16 09:26:06;;;;;;;4.00;1.80;;;52.70;24.70;;;;;;6276550;22;20412;-85
2022/06/16 09:28:55;;;;;;;1.47;1.30;;;52.20;23.10;;;;;;6276281;22;20417;-86
2022/06/16 09:31:44;;;;;;;4.50;1.20;;;52.40;23.10;;;;;;6198840;22;20375;-86
2022/06/16 09:34:21;;;;;;;3.23;1.20;;;52.60;24.00;;;;;;6249060;22;20766;-86
2022/06/16 09:37:00;;;;;;;1.87;1.33;;;52.40;22.60;;;;;;6276799;22;20362;-86
2022/06/16 09:39:39;;;;;;;2.70;1.20;;;52.60;22.50;;;;;;6277058;22;20354;-86
2022/06/16 09:42:35;;;;;;;1.63;1.00;;;52.40;22.10;;;;;;6276588;22;20350;-85
2022/06/16 09:45:37;;;;;;;1.50;1.07;;;52.40;21.90;;;;;;6276773;22;20414;-85
2022/06/16 09:48:13;;;;;;;2.27;1.00;;;51.90;20.80;;;;;;6228094;22;20484;-86
2022/06/16 09:50:38;;;;;;;2.80;1.33;;;51.80;20.10;;;;;;6293797;22;20346;-85
2022/06/16 09:53:22;;;;;;;1.40;1.13;;;51.60;19.60;;;;;;6299462;22;20378;-85
2022/06/16 09:55:58;;;;;;;2.40;1.20;;;51.20;19.00;;;;;;6249640;22;20459;-86
2022/06/16 09:58:42;;;;;;;2.50;0.90;;;51.10;18.60;;;;;;6249021;22;20461;-85
2022/06/16 10:01:09;;;;;;;2.20;1.27;;;51.10;19.20;;;;;;6276573;22;20429;-85
2022/06/16 10:03:49;;;;;;;1.60;1.20;;;50.90;19.20;;;;;;6276306;22;20397;-86
2022/06/16 10:06:31;;;;;;;4.93;1.13;;;50.80;18.70;;;;;;6276065;22;20520;-86
2022/06/16 10:09:11;;;;;;;3.03;1.43;;;50.40;18.30;;;;;;6276262;22;20355;-86
2022/06/16 10:11:57;;;;;;;2.67;1.23;;;49.30;16.40;;;;;;6276522;22;20508;-86
2022/06/16 10:14:40;;;;;;;3.20;1.30;;;49.00;15.70;;;;;;6275361;22;20899;-85
2022/06/16 10:17:09;;;;;;;4.30;1.33;;;48.80;16.40;;;;;;6248781;22;20387;-85
2022/06/16 10:19:38;;;;;;;3.60;1.57;;;48.80;16.30;;;;;;6249103;22;20414;-85
2022/06/16 10:22:05;;;;;;;1.70;1.30;;;48.80;16.30;;;;;;6275922;22;20759;-86
2022/06/16 10:24:49;;;;;;;1.83;1.13;;;48.70;16.20;;;;;;6275698;22;20790;-85
2022/06/16 10:27:18;;;;;;;1.50;1.20;;;48.70;16.60;;;;;;6275426;22;20410;-85
2022/06/16 10:29:56;;;;;;;2.00;1.33;;;48.70;16.80;;;;;;6275847;22;20370;-86
2022/06/16 10:32:42;;;;;;;2.60;1.77;;;48.90;17.10;;;;;;6275855;22;20400;-85
2022/06/16 10:35:16;;;;;;;2.33;1.30;;;49.40;18.00;;;;;;6275854;22;20770;-86
2022/06/16 10:37:42;;;;;;;2.13;1.30;;;49.20;18.00;;;;;;6275719;22;20907;-85
2022/06/16 10:40:14;;;;;;;3.67;1.50;;;48.60;16.50;;;;;;6275887;22;20462;-85
2022/06/16 10:42:53;;;;;;;2.13;1.10;;;48.40;16.60;;;;;;6275970;22;20359;-86
2022/06/16 10:45:29;;;;;;;1.83;1.20;;;48.30;16.60;;;;;;6245566;23;20802;-86
2022/06/16 10:48:01;;;;;;;3.37;1.50;;;48.50;17.50;;;;;;6218404;23;20441;-86
2022/06/16 10:50:43;;;;;;;1.90;1.30;;;48.80;18.40;;;;;;6218317;23;20383;-86
2022/06/16 10:53:24;;;;;;;2.80;1.33;;;48.80;19.00;;;;;;6244739;22;20401;-85
2022/06/16 10:55:54;;;;;;;2.63;1.13;;;48.90;19.20;;;;;;6245064;23;20360;-85
2022/06/16 10:58:24;;;;;;;2.90;1.47;;;48.10;16.90;;;;;;6244416;23;20360;-85
2022/06/16 11:01:00;;;;;;;3.07;1.57;;;47.70;16.00;;;;;;6245201;23;20745;-85
2022/06/16 11:03:26;;;;;;;2.53;1.30;;;47.40;16.40;;;;;;6217848;23;20396;-85
2022/06/16 11:05:58;;;;;;;2.47;1.47;;;47.00;15.10;;;;;;6218075;23;20442;-85
2022/06/16 11:08:32;;;;;;;1.87;1.30;;;46.40;24.30;;;;;;6244657;23;20161;-85
2022/06/16 11:11:00;;;;;;;3.30;1.60;;;45.60;12.90;;;;;;6245275;23;20818;-85
2022/06/16 11:13:30;;;;;;;5.97;1.70;;;45.30;13.80;;;;;;6245022;22;20454;-85
2022/06/16 11:15:56;;;;;;;3.73;1.83;;;45.40;14.30;;;;;;6245174;23;20356;-85
2022/06/16 11:18:29;;;;;;;5.23;1.40;;;45.70;14.90;;;;;;6244904;23;20372;-85
2022/06/16 11:20:58;;;;;;;1.80;1.20;;;45.80;15.50;;;;;;6244875;23;20695;-85
2022/06/16 11:23:34;;;;;;;3.10;1.53;;;45.90;15.80;;;;;;6244641;22;20445;-86
2022/06/16 11:26:16;;;;;;;2.30;1.33;;;46.00;16.70;;;;;;6244754;23;20814;-85
2022/06/16 11:28:52;;;;;;;2.40;1.27;;;46.30;17.20;;;;;;6244530;23;20815;-86
2022/06/16 11:31:21;;;;;;;4.90;1.73;;;46.50;17.70;;;;;;6244773;23;20356;-85
2022/06/16 11:34:08;;;;;;;6.03;1.67;;;46.10;16.40;;;;;;6244481;22;20384;-86
2022/06/16 11:36:50;;;;;;;2.70;1.27;;;45.20;15.10;;;;;;6244611;23;20713;-85
2022/06/16 11:39:24;;;;;;;2.67;1.63;;;44.50;13.70;;;;;;6244855;23;20364;-85
2022/06/16 11:41:52;;;;;;;4.70;1.27;;;44.10;13.10;;;;;;6217980;23;20386;-85
2022/06/16 11:44:37;;;;;;;2.00;1.20;;;43.90;13.40;;;;;;6263513;22;20461;-85
2022/06/16 11:47:18;;;;;;;2.00;1.20;;;43.80;13.30;;;;;;6274838;22;20791;-85
2022/06/16 11:50:07;;;;;;;1.93;1.23;;;43.60;13.30;;;;;;6248077;22;20395;-85
2022/06/16 11:52:52;;;;;;;3.83;1.60;;;43.30;13.20;;;;;;6254916;22;21062;-85
2022/06/16 11:55:29;;;;;;;1.77;1.10;;;42.90;13.10;;;;;;6247888;22;20375;-86
2022/06/16 11:58:16;;;;;;;2.20;1.50;;;43.20;14.80;;;;;;6247822;22;21046;-86
2022/06/16 12:00:50;;;;;;;4.10;1.63;;;43.30;15.50;;;;;;6275256;22;20386;-85
2022/06/16 12:03:28;;;;;;;2.60;1.43;;;43.30;16.00;;;;;;6275337;22;20398;-85
2022/06/16 12:06:11;;;;;;;2.63;1.43;;;43.50;16.60;;;;;;6275318;22;20363;-85
2022/06/16 12:09:06;;;;;;;2.40;1.33;;;43.50;16.20;;;;;;6277335;22;20873;-85
2022/06/16 12:11:50;;;;;;;3.80;1.33;;;43.50;17.30;;;;;;6282129;22;20355;-84
2022/06/16 12:14:28;;;;;;;2.00;1.23;;;43.60;17.40;;;;;;6288714;22;20395;-84
2022/06/16 12:17:22;;;;;;;3.50;1.63;;;43.60;17.20;;;;;;6290120;22;20363;-84
2022/06/16 12:19:51;;;;;;;2.73;1.17;;;43.30;16.70;;;;;;6288297;22;20452;-84
2022/06/16 12:22:41;;;;;;;2.70;1.30;;;43.30;16.80;;;;;;6286611;22;20375;-85
2022/06/16 12:25:26;;;;;;;2.37;1.50;;;43.10;16.00;;;;;;6287237;22;20398;-84
2022/06/16 12:28:13;;;;;;;3.90;1.93;;;43.00;16.50;;;;;;6287219;22;20413;-84
2022/06/16 12:30:47;;;;;;;2.57;1.50;;;42.70;15.90;;;;;;6287301;22;20458;-84
2022/06/16 12:33:40;;;;;;;5.00;1.60;;;42.50;16.10;;;;;;6289429;22;20393;-84
2022/06/16 12:36:09;;;;;;;3.90;1.40;;;42.30;15.40;;;;;;6291616;22;20362;-84
2022/06/16 12:38:49;;;;;;;1.93;1.70;;;42.00;14.40;;;;;;6289878;22;20938;-84
2022/06/16 12:41:25;;;;;;;2.63;1.30;;;41.40;13.70;;;;;;6259910;22;20411;-84
2022/06/16 12:44:00;;;;;;;2.47;1.57;;;40.80;13.00;;;;;;6270000;22;20892;-85
2022/06/16 12:46:35;;;;;;;3.43;1.80;;;40.40;12.70;;;;;;6216170;23;20420;-85
2022/06/16 12:49:14;;;;;;;5.03;1.67;;;39.90;12.60;;;;;;6243800;23;20727;-85
2022/06/16 12:51:52;;;;;;;3.33;1.70;;;39.70;12.20;;;;;;6217100;23;20708;-85
2022/06/16 12:54:30;;;;;;;2.23;1.70;;;39.20;11.50;;;;;;6253950;22;20897;-85
2022/06/16 12:57:01;;;;;;;2.60;1.73;;;39.00;11.90;;;;;;6246177;23;20366;-85
2022/06/16 12:59:37;;;;;;;2.03;1.23;;;38.80;12.30;;;;;;6246842;22;20446;-87
2022/06/16 13:02:05;;;;;;;4.37;2.00;;;38.90;13.40;;;;;;6245522;23;20375;-88
2022/06/16 13:04:33;;;;;;;2.40;1.90;;;38.80;13.90;;;;;;6246784;22;20869;-87
2022/06/16 13:07:03;;;;;;;1.80;1.20;;;38.80;14.30;;;;;;6246720;22;20451;-87
2022/06/16 13:09:28;;;;;;;3.47;1.53;;;38.80;14.90;;;;;;6247467;22;20914;-87
2022/06/16 13:12:04;;;;;;;3.37;1.50;;;38.60;14.50;;;;;;6247591;23;20372;-87
2022/06/16 13:14:37;;;;;;;3.83;1.50;;;38.50;14.80;;;;;;6247435;22;20238;-87
2022/06/16 13:17:06;;;;;;;2.53;1.87;;;38.40;15.10;;;;;;6247007;22;20360;-88
2022/06/16 13:19:39;;;;;;;3.50;1.60;;;38.30;15.50;;;;;;6247423;22;20372;-88
2022/06/16 13:22:17;;;;;;;2.17;1.70;;;38.20;15.70;;;;;;6243901;23;20437;-87
2022/06/16 13:24:55;;;;;;;4.33;1.83;;;38.10;15.90;;;;;;6245597;22;20945;-88
2022/06/16 13:27:30;;;;;;;8.07;1.57;;;37.80;24.90;;;;;;6245237;22;20423;-88
2022/06/16 13:30:19;;;;;;;5.80;1.70;;;37.60;15.00;;;;;;6244744;23;20371;-87
2022/06/16 13:32:47;;;;;;;3.20;1.97;;;37.60;14.70;;;;;;6244148;23;20391;-88
2022/06/16 13:35:13;;;;;;;2.77;1.43;;;37.50;15.40;;;;;;6245738;22;20391;-88
2022/06/16 13:37:41;;;;;;;1.93;1.63;;;37.30;16.00;;;;;;6245578;23;20380;-87
2022/06/16 13:40:07;;;;;;;2.03;1.53;;;37.20;15.90;;;;;;6245892;23;20149;-87
2022/06/16 13:42:51;;;;;;;2.50;1.50;;;37.10;15.60;;;;;;6245990;23;20453;-88
2022/06/16 13:45:31;;;;;;;2.60;1.43;;;37.00;15.40;;;;;;6245637;22;20192;-87
2022/06/16 13:50:55;;;;;;;3.50;1.60;;;36.30;15.10;;;;;;6245844;23;20380;-87
2022/06/16 13:53:29;;;;;;;2.70;1.80;;;35.70;15.70;;;;;;6219167;22;20372;-88
2022/06/16 13:56:01;;;;;;;1.70;1.40;;;35.30;15.40;;;;;;6246017;23;20390;-87
2022/06/16 13:58:51;;;;;;;2.20;1.70;;;35.10;14.90;;;;;;6245499;23;20379;-87
2022/06/16 14:01:23;;;;;;;3.50;1.40;;;34.80;15.40;;;;;;6245941;23;20392;-87
2022/06/16 14:04:14;;;;;;;2.03;1.60;;;34.30;14.60;;;;;;6246040;22;20427;-87
2022/06/16 14:06:50;;;;;;;2.30;1.93;;;34.00;14.60;;;;;;6245147;23;20422;-87
2022/06/16 14:09:29;;;;;;;4.10;1.90;;;33.60;15.00;;;;;;6246008;23;20364;-87
2022/06/16 14:12:09;;;;;;;2.40;1.47;;;33.50;15.30;;;;;;6245573;23;20356;-87
2022/06/16 14:14:53;;;;;;;4.63;1.70;;;33.40;15.40;;;;;;6222459;23;20794;-87
2022/06/16 14:17:31;;;;;;;2.57;1.63;;;33.30;16.70;;;;;;6245193;23;20714;-87
2022/06/16 14:20:00;;;;;;;4.03;1.53;;;33.30;17.20;;;;;;6245520;23;20372;-87
2022/06/16 14:22:29;;;;;;;7.60;1.97;;;33.20;17.80;;;;;;6245655;23;20371;-87
2022/06/16 14:25:16;;;;;;;2.33;1.90;;;33.10;18.30;;;;;;6245621;22;20773;-87
2022/06/16 14:27:54;;;;;;;2.93;1.70;;;32.90;18.60;;;;;;6218706;23;20422;-87
2022/06/16 14:30:24;;;;;;;3.10;1.53;;;32.80;18.40;;;;;;6245826;23;20371;-87
2022/06/16 14:32:57;;;;;;;3.10;2.10;;;32.90;19.20;;;;;;6245254;23;20357;-87
2022/06/16 14:35:31;;;;;;;1.90;1.40;;;32.50;19.00;;;;;;6245592;22;20792;-87
2022/06/16 14:38:16;;;;;;;2.80;1.70;;;32.50;19.20;;;;;;6218668;23;20425;-87
2022/06/16 14:40:51;;;;;;;2.90;1.80;;;32.50;20.40;;;;;;6218449;23;20722;-88
2022/06/16 14:44:00;;;;;;;2.70;1.57;;;32.50;21.00;;;;;;6218969;22;20372;-87